Spires, Illinois
Current Conditions -  °F | °C
As of 12:55 AM on Saturday 25 Oct 2014 (Local Time) from KC75 Reporting Station
Overcast Overcast  
Wind Chill: 60°   Ceiling: 2400
Heat Index: 60°   Visibility: 10mi
Dew Point: 51°   Wind: 5mph
Humidity: 71%   Direction: 220°SW
Pressure: 29.93"   Gusts: NA
Location:  40.8848°N, 89.0396°W
Report Text: KC75 250555Z AUTO 22004KT 10SM OVC024 16/11 A2993 RMK AO2 T01580106 10159 20138 401930041
Loading
Personal Weather Stations






























Interactive Weather Map
Tropical Storm Tracking
New forecast layout! Learn more

10-Day Weather Forecast

Advertisements
Track Severe Weather on mobile